createdAt,value
2023-08-12T00:01:48.690Z,63.00
2023-08-12T00:04:21.142Z,63.00
2023-08-12T00:06:54.339Z,63.00
2023-08-12T00:09:26.840Z,63.00
2023-08-12T00:11:59.923Z,62.90
2023-08-12T00:14:32.333Z,62.90
2023-08-12T00:17:04.892Z,62.90
2023-08-12T00:19:37.262Z,62.90
2023-08-12T00:22:09.788Z,62.90
2023-08-12T00:24:42.286Z,62.90
2023-08-12T00:27:14.835Z,62.80
2023-08-12T00:29:47.287Z,62.80
2023-08-12T00:32:19.924Z,62.80
2023-08-12T00:34:52.877Z,62.80
2023-08-12T00:37:25.325Z,62.80
2023-08-12T00:39:58.646Z,63.70
2023-08-12T00:42:31.073Z,62.80
2023-08-12T00:45:03.734Z,62.80
2023-08-12T00:47:37.009Z,62.80
2023-08-12T00:50:10.603Z,62.90
2023-08-12T00:52:43.165Z,62.90
2023-08-12T00:55:15.752Z,62.80
2023-08-12T00:57:48.295Z,62.90
2023-08-12T01:00:22.403Z,62.80
2023-08-12T01:02:55.452Z,62.80
2023-08-12T01:05:28.069Z,62.90
2023-08-12T01:08:00.519Z,62.80
2023-08-12T01:10:35.670Z,62.80
2023-08-12T01:13:08.272Z,62.80
2023-08-12T01:15:42.013Z,62.80
2023-08-12T01:18:16.606Z,62.70
2023-08-12T01:20:49.318Z,62.70
2023-08-12T01:23:21.989Z,62.70
2023-08-12T01:25:54.411Z,62.70
2023-08-12T01:28:26.884Z,62.60
2023-08-12T01:31:06.325Z,62.60
2023-08-12T01:33:48.088Z,62.60
2023-08-12T01:36:24.182Z,62.50
2023-08-12T01:38:57.917Z,62.50
2023-08-12T01:41:30.520Z,62.50
2023-08-12T01:44:04.013Z,62.40
2023-08-12T01:46:37.315Z,62.30
2023-08-12T01:49:10.447Z,62.30
2023-08-12T01:51:42.893Z,62.20
2023-08-12T01:54:15.457Z,62.20
2023-08-12T01:56:47.988Z,62.10
2023-08-12T01:59:20.535Z,62.10
2023-08-12T02:01:53.109Z,62.10
2023-08-12T02:04:25.540Z,62.10
2023-08-12T02:06:59.316Z,62.10
2023-08-12T02:09:32.057Z,62.00
2023-08-12T02:12:04.837Z,62.00
2023-08-12T02:14:37.909Z,61.90
2023-08-12T02:17:11.904Z,61.80
2023-08-12T02:19:44.590Z,61.80
2023-08-12T02:22:17.005Z,61.70
2023-08-12T02:24:49.527Z,61.70
2023-08-12T02:27:22.004Z,61.60
2023-08-12T02:29:54.533Z,61.60
2023-08-12T02:32:26.982Z,61.60
2023-08-12T02:34:59.430Z,61.50
2023-08-12T02:37:31.913Z,61.50
2023-08-12T02:40:06.154Z,61.40
2023-08-12T02:42:38.560Z,61.40
2023-08-12T02:45:13.294Z,61.30
2023-08-12T02:47:45.706Z,61.30
2023-08-12T02:50:18.326Z,61.30
2023-08-12T02:52:50.849Z,61.20
2023-08-12T02:55:23.989Z,61.10
2023-08-12T02:57:56.526Z,61.00
2023-08-12T03:00:29.229Z,60.90
2023-08-12T03:03:01.792Z,60.90
2023-08-12T03:05:34.596Z,60.80
2023-08-12T03:08:09.898Z,60.80
2023-08-12T03:10:42.877Z,60.60
2023-08-12T03:13:18.395Z,61.40
2023-08-12T03:15:51.006Z,60.40
2023-08-12T03:18:23.697Z,60.40
2023-08-12T03:20:56.197Z,60.30
2023-08-12T03:23:30.656Z,60.30
2023-08-12T03:26:03.886Z,60.30
2023-08-12T03:28:36.549Z,60.20
2023-08-12T03:31:09.446Z,60.20
2023-08-12T03:33:42.043Z,60.10
2023-08-12T03:36:15.060Z,60.00
2023-08-12T03:38:50.830Z,60.00
2023-08-12T03:41:28.490Z,59.90
2023-08-12T03:44:03.786Z,59.90
2023-08-12T03:46:36.679Z,59.90
2023-08-12T03:49:09.775Z,59.80
2023-08-12T03:51:42.606Z,59.70
2023-08-12T03:54:15.008Z,59.60
2023-08-12T03:56:47.542Z,59.50
2023-08-12T03:59:20.519Z,59.80
2023-08-12T04:01:53.042Z,59.50
2023-08-12T04:04:25.615Z,59.40
2023-08-12T04:06:58.057Z,59.30
2023-08-12T04:09:30.569Z,59.20
2023-08-12T04:12:03.443Z,59.20
2023-08-12T04:14:35.975Z,59.10
2023-08-12T04:17:08.419Z,59.10
2023-08-12T04:19:40.994Z,59.00
2023-08-12T04:22:13.845Z,59.00
2023-08-12T04:24:46.402Z,59.00
2023-08-12T04:27:19.921Z,58.90
2023-08-12T04:29:52.859Z,58.80
2023-08-12T04:32:25.784Z,58.80
2023-08-12T04:34:58.397Z,58.80
2023-08-12T04:37:33.473Z,58.80
2023-08-12T04:40:08.785Z,59.60
2023-08-12T04:42:41.184Z,58.60
2023-08-12T04:45:14.818Z,58.70
2023-08-12T04:47:49.877Z,58.70
2023-08-12T04:50:25.716Z,58.70
2023-08-12T04:52:58.456Z,58.80
2023-08-12T04:55:31.624Z,58.80
2023-08-12T04:58:05.881Z,58.50
2023-08-12T05:00:41.170Z,58.30
2023-08-12T05:03:14.845Z,58.30
2023-08-12T05:05:53.910Z,58.10
2023-08-12T05:08:30.506Z,58.00
2023-08-12T05:11:02.908Z,58.00
2023-08-12T05:13:35.456Z,58.00
2023-08-12T05:16:08.357Z,58.10
2023-08-12T05:18:40.954Z,58.20
2023-08-12T05:21:15.890Z,58.30
2023-08-12T05:23:48.490Z,58.50
2023-08-12T05:26:22.818Z,58.50
2023-08-12T05:28:55.276Z,58.60
2023-08-12T05:31:27.742Z,58.90
2023-08-12T05:34:00.518Z,59.90
2023-08-12T05:36:35.113Z,58.90
2023-08-12T05:39:07.656Z,58.60
2023-08-12T05:41:40.178Z,58.30
2023-08-12T05:44:12.689Z,58.10
2023-08-12T05:46:45.274Z,57.90
2023-08-12T05:49:17.706Z,57.80
2023-08-12T05:51:50.224Z,57.50
2023-08-12T05:54:22.676Z,57.10
2023-08-12T05:56:55.012Z,57.00
2023-08-12T05:59:27.585Z,56.80
2023-08-12T06:02:00.020Z,56.50
2023-08-12T06:04:32.496Z,56.50
2023-08-12T06:07:04.976Z,56.40
2023-08-12T06:09:37.464Z,56.40
2023-08-12T06:12:10.253Z,56.40
2023-08-12T06:14:43.255Z,56.50
2023-08-12T06:17:15.660Z,56.60
2023-08-12T06:19:48.125Z,56.80
2023-08-12T06:22:20.519Z,56.80
2023-08-12T06:24:52.995Z,57.00
2023-08-12T06:27:25.413Z,57.20
2023-08-12T06:29:57.917Z,57.20
2023-08-12T06:32:30.383Z,57.20
2023-08-12T06:35:03.411Z,57.50
2023-08-12T06:37:35.812Z,57.70
2023-08-12T06:40:08.514Z,57.80
2023-08-12T06:42:41.036Z,57.80
2023-08-12T06:45:16.452Z,57.80
2023-08-12T06:47:48.971Z,57.70
2023-08-12T06:50:21.967Z,57.60
2023-08-12T06:52:54.329Z,57.60
2023-08-12T06:55:26.838Z,57.80
2023-08-12T06:57:59.298Z,57.70
2023-08-12T07:00:32.068Z,57.70
2023-08-12T07:03:04.577Z,57.60
2023-08-12T07:05:37.132Z,57.70
2023-08-12T07:08:09.847Z,57.60
2023-08-12T07:10:42.730Z,57.40
2023-08-12T07:13:15.259Z,57.50
2023-08-12T07:15:47.778Z,57.60
2023-08-12T07:18:20.281Z,57.70
2023-08-12T07:20:52.758Z,57.70
2023-08-12T07:23:25.392Z,57.70
2023-08-12T07:25:58.037Z,57.70
2023-08-12T07:28:30.626Z,57.70
2023-08-12T07:31:03.370Z,57.60
2023-08-12T07:33:36.096Z,57.60
2023-08-12T07:36:08.589Z,57.50
2023-08-12T07:38:41.020Z,57.60
2023-08-12T07:41:19.591Z,57.70
2023-08-12T07:44:09.861Z,57.80
2023-08-12T07:46:47.266Z,57.80
2023-08-12T07:49:20.172Z,57.70
2023-08-12T07:51:52.686Z,57.70
2023-08-12T07:54:27.661Z,57.80
2023-08-12T07:57:01.677Z,57.70
2023-08-12T07:59:34.036Z,57.60
2023-08-12T08:02:06.565Z,57.70
2023-08-12T08:04:39.124Z,57.60
2023-08-12T08:07:12.290Z,57.60
2023-08-12T08:09:45.139Z,57.60
2023-08-12T08:12:17.564Z,57.50
2023-08-12T08:14:49.918Z,57.60
2023-08-12T08:17:22.511Z,57.50
2023-08-12T08:19:54.939Z,57.50
2023-08-12T08:22:34.550Z,57.50
2023-08-12T08:25:14.389Z,57.50
2023-08-12T08:27:49.577Z,57.60
2023-08-12T08:30:24.197Z,57.70
2023-08-12T08:32:56.760Z,57.50
2023-08-12T08:35:29.644Z,57.40
2023-08-12T08:38:02.185Z,57.50
2023-08-12T08:40:34.767Z,57.40
2023-08-12T08:43:08.479Z,57.30
2023-08-12T08:45:41.438Z,57.40
2023-08-12T08:48:13.984Z,57.40
2023-08-12T08:50:49.662Z,57.40
2023-08-12T08:53:22.140Z,57.60
2023-08-12T08:56:01.319Z,57.70
2023-08-12T08:58:34.194Z,57.60
2023-08-12T09:01:10.560Z,57.60
2023-08-12T09:03:43.965Z,57.70
2023-08-12T09:06:16.434Z,57.70
2023-08-12T09:08:49.784Z,57.80
2023-08-12T09:11:22.314Z,57.70
2023-08-12T09:13:55.191Z,57.70
2023-08-12T09:16:27.727Z,57.50
2023-08-12T09:19:03.481Z,57.30
2023-08-12T09:21:36.156Z,57.30
2023-08-12T09:24:09.845Z,57.30
2023-08-12T09:26:43.881Z,57.30
2023-08-12T09:29:16.436Z,57.20
2023-08-12T09:31:49.011Z,57.10
2023-08-12T09:34:21.631Z,57.10
2023-08-12T09:36:54.030Z,57.10
2023-08-12T09:39:27.392Z,57.00
2023-08-12T09:42:01.144Z,56.90
2023-08-12T09:44:36.445Z,56.80
2023-08-12T09:47:11.926Z,56.80
2023-08-12T09:49:44.399Z,56.90
2023-08-12T09:52:16.826Z,56.90
2023-08-12T09:54:49.732Z,56.80
2023-08-12T09:57:24.895Z,56.80
2023-08-12T09:59:58.375Z,56.70
2023-08-12T10:02:30.866Z,56.60
2023-08-12T10:05:03.563Z,56.60
2023-08-12T10:07:37.137Z,56.50
2023-08-12T10:10:10.603Z,56.50
2023-08-12T10:12:43.424Z,56.30
2023-08-12T10:15:16.788Z,56.20
2023-08-12T10:17:50.265Z,56.30
2023-08-12T10:20:26.422Z,56.10
2023-08-12T10:23:00.709Z,55.80
2023-08-12T10:25:34.027Z,56.00
2023-08-12T10:28:06.726Z,55.70
2023-08-12T10:30:40.784Z,55.60
2023-08-12T10:33:16.325Z,55.70
2023-08-12T10:35:49.611Z,55.70
2023-08-12T10:38:22.375Z,55.70
2023-08-12T10:41:16.262Z,55.70
2023-08-12T10:44:00.363Z,55.60
2023-08-12T10:46:36.730Z,55.70
2023-08-12T10:49:10.105Z,55.80
2023-08-12T10:51:53.376Z,55.70
2023-08-12T10:54:28.459Z,55.50
2023-08-12T10:57:23.912Z,55.70
2023-08-12T10:59:56.442Z,55.60
2023-08-12T11:02:30.462Z,55.80
2023-08-12T11:05:09.243Z,55.70
2023-08-12T11:07:45.848Z,55.40
2023-08-12T11:10:26.676Z,55.60
2023-08-12T11:12:59.431Z,55.70
2023-08-12T11:15:32.916Z,55.90
2023-08-12T11:18:15.546Z,55.90
2023-08-12T11:20:48.900Z,55.80
2023-08-12T11:23:22.155Z,56.10
2023-08-12T11:25:54.792Z,56.00
2023-08-12T11:28:30.130Z,56.00
2023-08-12T11:31:02.693Z,56.00
2023-08-12T11:33:35.068Z,56.00
2023-08-12T11:36:07.791Z,56.10
2023-08-12T11:38:40.259Z,55.80
2023-08-12T11:41:13.775Z,55.80
2023-08-12T11:43:46.224Z,55.80
2023-08-12T11:46:18.697Z,55.90
2023-08-12T11:48:52.043Z,55.90
2023-08-12T11:51:24.806Z,55.80
2023-08-12T11:53:57.376Z,55.80
2023-08-12T11:56:29.946Z,55.80
2023-08-12T11:59:02.666Z,55.90
2023-08-12T12:01:35.650Z,55.80
2023-08-12T12:04:08.191Z,55.80
2023-08-12T12:06:40.684Z,55.90
2023-08-12T12:09:15.222Z,55.80
2023-08-12T12:11:47.667Z,55.90
2023-08-12T12:14:20.454Z,55.70
2023-08-12T12:16:53.123Z,55.80
2023-08-12T12:19:25.698Z,55.70
2023-08-12T12:21:58.111Z,55.70
2023-08-12T12:24:31.129Z,55.90
2023-08-12T12:27:05.892Z,56.00
2023-08-12T12:29:38.343Z,55.90
2023-08-12T12:32:11.990Z,56.00
2023-08-12T12:34:44.674Z,55.90
2023-08-12T12:37:17.137Z,55.70
2023-08-12T12:39:49.585Z,55.60
2023-08-12T12:42:22.057Z,55.40
2023-08-12T12:44:54.532Z,55.40
2023-08-12T12:47:27.190Z,55.50
2023-08-12T12:50:02.942Z,55.50
2023-08-12T12:52:35.383Z,55.40
2023-08-12T12:55:07.998Z,55.00
2023-08-12T12:57:40.647Z,54.90
2023-08-12T13:00:13.411Z,54.60
2023-08-12T13:02:45.916Z,54.80
2023-08-12T13:05:18.384Z,54.60
2023-08-12T13:07:50.822Z,54.30
2023-08-12T13:10:23.198Z,54.30
2023-08-12T13:12:55.665Z,54.20
2023-08-12T13:15:28.216Z,54.00
2023-08-12T13:18:00.684Z,54.00
2023-08-12T13:20:33.102Z,54.00
2023-08-12T13:23:05.716Z,53.90
2023-08-12T13:25:38.626Z,53.80
2023-08-12T13:28:11.184Z,53.80
2023-08-12T13:30:43.674Z,53.90
2023-08-12T13:33:16.027Z,53.80
2023-08-12T13:35:48.483Z,53.80
2023-08-12T13:38:21.002Z,53.70
2023-08-12T13:40:53.413Z,53.80
2023-08-12T13:43:26.638Z,53.70
2023-08-12T13:45:59.159Z,53.80
2023-08-12T13:48:31.646Z,53.80
2023-08-12T13:51:04.584Z,53.80
2023-08-12T13:53:37.071Z,53.80
2023-08-12T13:56:12.994Z,53.80
2023-08-12T13:58:45.777Z,53.70
2023-08-12T14:01:18.210Z,53.60
2023-08-12T14:03:50.759Z,53.40
2023-08-12T14:06:23.207Z,53.30
2023-08-12T14:09:21.404Z,53.20
2023-08-12T14:11:53.814Z,53.10
2023-08-12T14:14:28.987Z,53.00
2023-08-12T14:17:01.414Z,52.70
2023-08-12T14:19:33.976Z,52.50
2023-08-12T14:22:06.493Z,52.00
2023-08-12T14:24:38.952Z,51.80
2023-08-12T14:27:12.034Z,51.60
2023-08-12T14:29:45.273Z,51.60
2023-08-12T14:32:20.032Z,51.80
2023-08-12T14:34:52.474Z,51.70
2023-08-12T14:37:25.579Z,51.60
2023-08-12T14:39:58.031Z,51.40
2023-08-12T14:42:30.559Z,51.30
2023-08-12T14:45:03.500Z,51.30
2023-08-12T14:47:36.037Z,51.40
2023-08-12T14:50:09.692Z,51.40
2023-08-12T14:52:42.219Z,51.40
2023-08-12T14:55:14.652Z,51.40
2023-08-12T14:57:47.097Z,51.40
2023-08-12T15:00:19.438Z,51.40
2023-08-12T15:02:52.012Z,51.50
2023-08-12T15:05:24.483Z,51.50
2023-08-12T15:07:56.983Z,51.40
2023-08-12T15:10:30.647Z,51.10
2023-08-12T15:13:03.110Z,51.20
2023-08-12T15:15:35.481Z,51.10
2023-08-12T15:18:07.931Z,51.20
2023-08-12T15:20:42.116Z,51.10
2023-08-12T15:23:14.636Z,51.30
2023-08-12T15:25:47.820Z,51.40
2023-08-12T15:28:20.233Z,51.50
2023-08-12T15:30:52.749Z,51.60
2023-08-12T15:33:25.225Z,51.50
2023-08-12T15:35:57.644Z,51.50
2023-08-12T15:38:30.151Z,51.60
2023-08-12T15:41:02.542Z,51.80
2023-08-12T15:43:35.018Z,51.90
2023-08-12T15:46:07.481Z,51.80
2023-08-12T15:48:39.991Z,52.00
2023-08-12T15:51:12.984Z,52.00
2023-08-12T15:53:45.465Z,52.00
2023-08-12T15:56:17.946Z,52.10
2023-08-12T15:58:50.342Z,52.20
2023-08-12T16:01:24.264Z,52.30
2023-08-12T16:03:56.812Z,52.40
2023-08-12T16:06:29.773Z,52.40
2023-08-12T16:09:17.460Z,52.60
2023-08-12T16:11:51.092Z,52.60
2023-08-12T16:14:23.558Z,52.70
2023-08-12T16:16:56.021Z,52.80
2023-08-12T16:19:31.112Z,52.80
2023-08-12T16:22:03.857Z,52.90
2023-08-12T16:24:36.292Z,52.90
2023-08-12T16:27:08.701Z,53.00
2023-08-12T16:29:41.133Z,53.00
2023-08-12T16:32:13.929Z,52.90
2023-08-12T16:34:46.587Z,53.00
2023-08-12T16:37:21.169Z,53.00
2023-08-12T16:39:54.489Z,53.00
2023-08-12T16:42:26.953Z,53.10
2023-08-12T16:44:59.550Z,53.10
2023-08-12T16:47:32.601Z,53.10
2023-08-12T16:50:05.682Z,53.10
2023-08-12T16:52:38.624Z,53.10
2023-08-12T16:55:13.841Z,53.20
2023-08-12T16:57:46.408Z,53.30
2023-08-12T17:00:20.143Z,53.20
2023-08-12T17:02:52.623Z,53.30
2023-08-12T17:05:25.076Z,53.30
2023-08-12T17:07:57.600Z,53.40
2023-08-12T17:10:30.596Z,53.50
2023-08-12T17:13:03.075Z,53.60
2023-08-12T17:15:35.483Z,53.60
2023-08-12T17:18:09.428Z,53.80
2023-08-12T17:20:42.708Z,53.80
2023-08-12T17:23:15.097Z,53.90
2023-08-12T17:25:47.977Z,54.00
2023-08-12T17:28:20.800Z,54.00
2023-08-12T17:30:53.990Z,54.10
2023-08-12T17:33:26.545Z,54.20
2023-08-12T17:36:02.115Z,54.30
2023-08-12T17:38:37.428Z,54.30
2023-08-12T17:41:09.869Z,54.40
2023-08-12T17:43:45.038Z,54.50
2023-08-12T17:46:18.005Z,54.30
2023-08-12T17:48:50.541Z,54.40
2023-08-12T17:51:23.118Z,54.40
2023-08-12T17:53:55.827Z,54.50
2023-08-12T17:56:28.265Z,54.60
2023-08-12T17:59:01.652Z,54.50
2023-08-12T18:01:34.233Z,54.60
2023-08-12T18:04:09.418Z,54.60
2023-08-12T18:06:42.072Z,54.60
2023-08-12T18:09:19.211Z,54.70
2023-08-12T18:11:51.704Z,54.70
2023-08-12T18:14:26.492Z,54.70
2023-08-12T18:16:59.083Z,54.60
2023-08-12T18:19:31.550Z,54.60
2023-08-12T18:22:04.335Z,54.60
2023-08-12T18:24:36.746Z,54.60
2023-08-12T18:27:09.255Z,54.70
2023-08-12T18:29:43.919Z,54.70
2023-08-12T18:32:16.582Z,54.70
2023-08-12T18:34:49.062Z,54.70
2023-08-12T18:37:21.514Z,54.70
2023-08-12T18:39:53.968Z,54.70
2023-08-12T18:42:26.867Z,54.80
2023-08-12T18:44:59.284Z,54.70
2023-08-12T18:47:34.045Z,54.70
2023-08-12T18:50:07.739Z,54.70
2023-08-12T18:52:40.224Z,54.70
2023-08-12T18:55:13.126Z,54.80
2023-08-12T18:57:47.602Z,54.80
2023-08-12T19:00:21.542Z,54.80
2023-08-12T19:02:54.355Z,54.80
2023-08-12T19:05:28.095Z,54.90
2023-08-12T19:08:00.598Z,54.90
2023-08-12T19:10:33.078Z,54.90
2023-08-12T19:13:05.673Z,55.00
2023-08-12T19:15:38.358Z,55.00
2023-08-12T19:18:11.322Z,55.00
2023-08-12T19:20:43.765Z,55.00
2023-08-12T19:23:17.333Z,55.10
2023-08-12T19:25:49.772Z,55.10
2023-08-12T19:28:22.329Z,55.10
2023-08-12T19:30:54.812Z,55.10
2023-08-12T19:33:27.444Z,55.10
2023-08-12T19:35:59.922Z,55.20
2023-08-12T19:38:32.418Z,55.20
2023-08-12T19:41:05.083Z,55.10
2023-08-12T19:43:37.593Z,55.20
2023-08-12T19:46:10.063Z,55.20
2023-08-12T19:48:42.578Z,55.30
2023-08-12T19:51:14.963Z,55.30
2023-08-12T19:53:48.274Z,55.30
2023-08-12T19:56:20.860Z,55.40
2023-08-12T19:58:53.374Z,55.40
2023-08-12T20:01:31.607Z,55.40
2023-08-12T20:04:04.354Z,55.60
2023-08-12T20:06:36.776Z,55.80
2023-08-12T20:09:14.841Z,55.90
2023-08-12T20:11:47.296Z,56.00
2023-08-12T20:14:19.793Z,56.30
2023-08-12T20:16:52.182Z,56.50
2023-08-12T20:19:24.620Z,56.60
2023-08-12T20:21:57.050Z,56.60
2023-08-12T20:24:29.573Z,56.60
2023-08-12T20:27:02.021Z,56.60
2023-08-12T20:29:34.420Z,56.60
2023-08-12T20:32:06.816Z,56.60
2023-08-12T20:34:39.315Z,56.60
2023-08-12T20:37:12.100Z,56.60
2023-08-12T20:39:44.924Z,56.70
2023-08-12T20:42:17.324Z,56.70
2023-08-12T20:44:50.323Z,56.80
2023-08-12T20:47:22.771Z,56.70
2023-08-12T20:49:55.344Z,56.70
2023-08-12T20:52:27.893Z,56.70
2023-08-12T20:55:00.403Z,56.80
2023-08-12T20:57:32.962Z,56.80
2023-08-12T21:00:08.422Z,56.70
2023-08-12T21:02:43.678Z,56.70
2023-08-12T21:05:16.229Z,56.70
2023-08-12T21:07:48.765Z,56.80
2023-08-12T21:10:21.202Z,56.70
2023-08-12T21:12:53.990Z,56.70
2023-08-12T21:15:26.561Z,56.70
2023-08-12T21:17:59.040Z,56.70
2023-08-12T21:20:31.445Z,56.70
2023-08-12T21:23:04.022Z,56.70
2023-08-12T21:25:37.687Z,56.70
2023-08-12T21:28:10.117Z,56.60
2023-08-12T21:30:42.578Z,56.70
2023-08-12T21:33:15.056Z,56.70
2023-08-12T21:35:47.706Z,56.70
2023-08-12T21:38:20.203Z,56.60
2023-08-12T21:40:52.626Z,56.60
2023-08-12T21:43:25.059Z,56.70
2023-08-12T21:45:57.533Z,56.60
2023-08-12T21:48:30.015Z,56.70
2023-08-12T21:51:02.462Z,56.60
2023-08-12T21:53:34.918Z,56.60
2023-08-12T21:56:07.886Z,56.50
2023-08-12T21:58:40.260Z,56.50
2023-08-12T22:01:15.306Z,56.50
2023-08-12T22:03:47.741Z,56.50
2023-08-12T22:06:20.246Z,56.40
2023-08-12T22:08:52.793Z,56.40
2023-08-12T22:11:28.024Z,56.40
2023-08-12T22:14:17.460Z,56.30
2023-08-12T22:16:49.891Z,56.30
2023-08-12T22:19:22.309Z,56.50
2023-08-12T22:22:02.458Z,56.20
2023-08-12T22:24:41.928Z,56.20
2023-08-12T22:27:14.465Z,56.20
2023-08-12T22:29:49.989Z,56.20
2023-08-12T22:32:22.359Z,56.20
2023-08-12T22:34:54.845Z,56.20
2023-08-12T22:37:27.438Z,56.10
2023-08-12T22:39:59.814Z,56.10
2023-08-12T22:42:32.415Z,56.10
2023-08-12T22:45:06.425Z,56.10
2023-08-12T22:47:38.877Z,56.00
2023-08-12T22:50:13.711Z,56.00
2023-08-12T22:55:39.361Z,56.00
2023-08-12T22:58:11.792Z,55.90
2023-08-12T23:00:44.349Z,55.90
2023-08-12T23:03:19.376Z,55.90
2023-08-12T23:05:54.338Z,55.90
2023-08-12T23:08:26.835Z,55.90
2023-08-12T23:10:59.207Z,55.90
2023-08-12T23:13:31.665Z,55.90
2023-08-12T23:16:04.184Z,55.90
2023-08-12T23:18:37.036Z,55.90
2023-08-12T23:21:09.457Z,55.90
2023-08-12T23:23:41.910Z,55.80
2023-08-12T23:26:14.366Z,55.80
2023-08-12T23:28:46.812Z,55.90
2023-08-12T23:31:19.390Z,55.90
2023-08-12T23:33:51.981Z,55.90
2023-08-12T23:36:24.557Z,55.90
2023-08-12T23:38:56.984Z,56.00
2023-08-12T23:41:29.496Z,55.80
2023-08-12T23:44:02.153Z,55.90
2023-08-12T23:46:34.889Z,55.90
2023-08-12T23:49:07.520Z,55.80
2023-08-12T23:51:40.844Z,55.90
2023-08-12T23:54:13.296Z,56.00
2023-08-12T23:56:45.801Z,55.90
2023-08-12T23:59:18.255Z,55.90
